Terminal Aerodrome Forecast
Issued by NWS Charleston, WV

Current Version | Previous Version | Text Only | Print | Product List | Glossary Off
Versions: 1 2 3 4 5 6 7 8 9 10 11 12 13 14 15 16 17 18 19 20 21 22 23

494
FTUS41 KRLX 052339
TAFPKB
TAF
KPKB 052339Z 0600/0624 34006KT 6SM SHRA BKN025 OVC050
     FM060300 35005KT P6SM BKN035 OVC050
     FM061800 34009G15KT P6SM BKN050=

USA.gov is the U.S. government's official web portal to all federal, state and local government web resources and services.